Time;durP1;ratioP1;P1;durP2;ratioP2;P2;SDS_P1;SDS_P2;PMS_P1;PMS_P2;Temp;Humidity;BMP_temperature;BMP_pressure;BME280_temperature;BME280_humidity;BME280_pressure;Samples;Min_cycle;Max_cycle;Signal;HPM_P1;HPM_P2
2023/10/29 00:02:13;;;;;;;15.10;11.93;;;10.70;1.00;;;;;;5055405;28;20197;-64
2023/10/29 00:04:39;;;;;;;15.70;11.83;;;10.70;1.00;;;;;;5054581;28;20368;-65
2023/10/29 00:07:05;;;;;;;16.23;11.90;;;10.70;1.00;;;;;;5054981;28;20417;-63
2023/10/29 00:09:31;;;;;;;18.60;10.97;;;10.70;1.00;;;;;;5055266;28;20418;-64
2023/10/29 00:11:57;;;;;;;16.90;12.17;;;10.70;1.00;;;;;;5055511;28;20375;-64
2023/10/29 00:14:23;;;;;;;17.40;11.97;;;10.80;1.00;;;;;;5054977;28;20430;-70
2023/10/29 00:16:49;;;;;;;14.30;11.70;;;10.70;1.00;;;;;;5052900;28;20417;-64
2023/10/29 00:19:15;;;;;;;19.40;12.50;;;10.70;1.00;;;;;;5054681;28;20458;-64
2023/10/29 00:21:40;;;;;;;13.80;11.73;;;10.70;1.00;;;;;;5054670;28;20218;-63
2023/10/29 00:24:07;;;;;;;18.87;12.37;;;10.70;1.00;;;;;;5053831;28;20380;-64
2023/10/29 00:26:32;;;;;;;15.87;11.83;;;10.70;1.00;;;;;;5054255;28;20610;-63
2023/10/29 00:28:58;;;;;;;13.67;10.80;;;10.80;1.00;;;;;;5054718;28;20413;-66
2023/10/29 00:31:24;;;;;;;15.37;12.10;;;10.70;1.00;;;;;;5047612;28;20533;-63
2023/10/29 00:33:50;;;;;;;14.10;10.80;;;10.70;1.00;;;;;;5033776;28;20195;-65
2023/10/29 00:36:16;;;;;;;15.83;10.80;;;10.70;1.00;;;;;;5033724;28;20469;-63
2023/10/29 00:38:42;;;;;;;13.03;10.47;;;10.70;1.00;;;;;;5034792;28;20180;-63
2023/10/29 00:41:07;;;;;;;12.43;10.63;;;10.70;1.00;;;;;;5034575;28;20186;-64
2023/10/29 00:43:43;;;;;;;14.40;10.87;;;10.70;1.00;;;;;;5034960;28;20167;-64
2023/10/29 00:46:11;;;;;;;13.90;10.97;;;10.70;1.00;;;;;;5033768;28;20184;-64
2023/10/29 00:48:38;;;;;;;12.70;11.00;;;10.70;1.00;;;;;;5034390;28;20798;-63
2023/10/29 00:51:04;;;;;;;16.30;11.17;;;10.70;1.00;;;;;;5033866;28;20929;-64
2023/10/29 00:53:30;;;;;;;12.47;11.17;;;10.70;1.00;;;;;;5033749;28;20876;-63
2023/10/29 00:55:58;;;;;;;16.17;11.70;;;10.70;1.00;;;;;;5033560;28;20369;-64
2023/10/29 00:58:24;;;;;;;19.43;12.40;;;10.70;1.00;;;;;;5033247;28;20392;-64
2023/10/29 01:00:50;;;;;;;15.87;11.40;;;10.70;1.00;;;;;;5034466;28;20377;-64
2023/10/29 01:03:18;;;;;;;17.30;11.73;;;10.70;1.00;;;;;;5034219;28;20393;-65
2023/10/29 01:05:47;;;;;;;12.27;10.80;;;10.70;1.00;;;;;;5033286;28;20409;-64
2023/10/29 01:08:13;;;;;;;14.53;10.43;;;10.60;1.00;;;;;;5034570;28;20406;-64
2023/10/29 01:10:38;;;;;;;18.57;13.27;;;10.60;1.00;;;;;;5032878;28;20435;-63
2023/10/29 01:13:04;;;;;;;12.93;11.30;;;10.60;1.00;;;;;;5033114;28;20168;-64
2023/10/29 01:15:30;;;;;;;14.73;11.57;;;10.70;1.00;;;;;;5033252;28;20190;-63
2023/10/29 01:17:56;;;;;;;16.23;12.10;;;10.60;1.00;;;;;;5033970;28;20183;-63
2023/10/29 01:20:22;;;;;;;12.83;10.77;;;10.60;1.00;;;;;;5032693;28;20418;-63
2023/10/29 01:22:48;;;;;;;19.30;11.90;;;10.60;1.00;;;;;;5033998;28;20564;-64
2023/10/29 01:25:14;;;;;;;14.23;11.30;;;10.60;1.00;;;;;;5032443;28;20399;-66
2023/10/29 01:27:40;;;;;;;17.33;10.97;;;10.60;1.00;;;;;;5032758;28;20421;-64
2023/10/29 01:30:06;;;;;;;14.63;12.33;;;10.60;1.00;;;;;;5033521;28;20160;-64
2023/10/29 01:32:34;;;;;;;18.60;12.57;;;10.60;1.00;;;;;;5033769;28;20399;-63
2023/10/29 01:35:02;;;;;;;16.23;12.40;;;10.60;1.00;;;;;;5033072;28;20380;-63
2023/10/29 01:37:27;;;;;;;18.87;11.97;;;10.60;1.00;;;;;;5033622;28;20462;-66
2023/10/29 01:39:53;;;;;;;14.20;10.60;;;10.60;1.00;;;;;;5033741;28;20869;-64
2023/10/29 01:42:19;;;;;;;13.83;11.47;;;10.60;1.00;;;;;;5033622;28;20190;-64
2023/10/29 01:44:44;;;;;;;13.83;11.70;;;10.60;1.00;;;;;;5032072;28;20167;-66
2023/10/29 01:47:10;;;;;;;13.47;12.17;;;10.60;1.00;;;;;;5032946;28;20187;-68
2023/10/29 01:49:36;;;;;;;12.17;10.40;;;10.50;1.00;;;;;;5033316;28;20175;-65
2023/10/29 01:52:01;;;;;;;11.67;10.47;;;10.60;1.00;;;;;;5033398;28;20178;-65
2023/10/29 01:54:27;;;;;;;12.77;10.43;;;10.50;1.00;;;;;;5033348;28;20629;-64
2023/10/29 01:56:53;;;;;;;12.77;9.80;;;10.50;1.00;;;;;;5033230;28;20232;-64
2023/10/29 01:59:18;;;;;;;18.23;10.23;;;10.50;1.00;;;;;;5033642;28;20164;-64
2023/10/29 02:01:45;;;;;;;12.23;10.43;;;10.50;1.00;;;;;;5033063;28;20560;-66
2023/10/29 02:04:11;;;;;;;14.23;10.60;;;10.50;1.00;;;;;;5032640;28;20620;-63
2023/10/29 02:06:39;;;;;;;14.47;11.53;;;10.50;1.00;;;;;;5031380;28;20454;-66
2023/10/29 02:09:09;;;;;;;13.80;10.80;;;10.50;1.00;;;;;;5032964;28;20419;-63
2023/10/29 02:11:36;;;;;;;11.50;9.63;;;10.50;1.00;;;;;;5033177;28;20465;-64
2023/10/29 02:14:02;;;;;;;14.00;10.70;;;10.50;1.00;;;;;;5033026;28;20460;-64
2023/10/29 02:16:28;;;;;;;13.70;9.83;;;10.50;1.00;;;;;;5032592;28;20822;-64
2023/10/29 02:18:54;;;;;;;15.60;10.60;;;10.50;1.00;;;;;;5035075;28;20413;-64
2023/10/29 02:21:23;;;;;;;11.37;10.17;;;10.60;1.00;;;;;;5050615;28;20199;-63
2023/10/29 02:23:50;;;;;;;12.73;8.97;;;10.60;1.00;;;;;;5052406;28;20162;-64
2023/10/29 02:26:16;;;;;;;11.07;9.20;;;10.50;1.00;;;;;;5051938;28;20451;-66
2023/10/29 02:28:42;;;;;;;13.90;10.50;;;10.50;1.00;;;;;;5052300;28;20795;-64
2023/10/29 02:31:14;;;;;;;12.20;9.97;;;10.50;1.00;;;;;;5053102;28;20171;-63
2023/10/29 02:33:40;;;;;;;12.23;9.50;;;10.50;1.00;;;;;;5053060;28;20895;-66
2023/10/29 02:36:06;;;;;;;12.50;9.40;;;10.50;1.00;;;;;;5052174;28;20425;-65
2023/10/29 02:38:32;;;;;;;13.50;10.57;;;10.50;1.00;;;;;;5046503;28;20176;-63
2023/10/29 02:40:57;;;;;;;13.30;10.23;;;10.60;1.00;;;;;;5036946;28;20810;-64
2023/10/29 02:43:23;;;;;;;11.30;9.73;;;10.50;1.00;;;;;;5035546;28;20164;-64
2023/10/29 02:45:49;;;;;;;9.90;8.90;;;10.50;1.00;;;;;;5036335;28;20206;-64
2023/10/29 02:48:15;;;;;;;11.40;8.53;;;10.50;1.00;;;;;;5036681;28;20214;-63
2023/10/29 02:50:41;;;;;;;10.73;9.73;;;10.50;1.00;;;;;;5036908;28;20691;-63
2023/10/29 02:53:06;;;;;;;15.57;9.30;;;10.50;1.00;;;;;;5036881;28;20497;-63
2023/10/29 02:55:32;;;;;;;9.30;8.13;;;10.50;1.00;;;;;;5034815;28;20184;-63
2023/10/29 02:57:58;;;;;;;10.03;8.77;;;10.50;1.00;;;;;;5036461;28;20190;-63
2023/10/29 03:00:24;;;;;;;10.23;8.00;;;10.50;1.00;;;;;;5035109;28;20171;-64
2023/10/29 03:02:49;;;;;;;10.47;9.00;;;10.50;1.00;;;;;;5036559;28;20195;-66
2023/10/29 03:05:15;;;;;;;12.07;8.27;;;10.50;1.00;;;;;;5035948;28;20458;-63
2023/10/29 03:07:41;;;;;;;11.40;8.87;;;10.50;1.00;;;;;;5036502;28;20544;-64
2023/10/29 03:10:07;;;;;;;11.33;8.83;;;10.50;1.00;;;;;;5035087;28;20178;-63
2023/10/29 03:12:32;;;;;;;11.43;8.33;;;10.50;1.00;;;;;;5036305;28;20196;-64
2023/10/29 03:15:00;;;;;;;11.90;9.03;;;10.50;1.00;;;;;;5035689;28;21009;-63
2023/10/29 03:17:26;;;;;;;9.63;8.17;;;10.50;1.00;;;;;;5036001;28;20435;-65
2023/10/29 03:19:52;;;;;;;8.63;7.80;;;10.50;1.00;;;;;;5034981;28;20793;-64
2023/10/29 03:22:17;;;;;;;11.33;8.47;;;10.50;1.00;;;;;;5036298;28;20544;-64
2023/10/29 03:24:43;;;;;;;9.40;8.50;;;10.40;1.00;;;;;;5035528;28;20528;-63
2023/10/29 03:27:09;;;;;;;11.67;9.83;;;10.50;1.00;;;;;;5036008;28;20270;-63
2023/10/29 03:29:34;;;;;;;12.50;9.70;;;10.50;1.00;;;;;;5036095;28;20275;-63
2023/10/29 03:32:00;;;;;;;9.00;8.20;;;10.50;1.00;;;;;;5036189;28;20218;-63
2023/10/29 03:34:26;;;;;;;9.43;8.50;;;10.50;1.00;;;;;;5035425;28;20246;-63
2023/10/29 03:36:52;;;;;;;9.27;8.33;;;10.40;1.00;;;;;;5035099;28;20488;-68
2023/10/29 03:39:18;;;;;;;10.60;8.83;;;10.50;1.00;;;;;;5035193;28;20160;-66
2023/10/29 03:41:43;;;;;;;12.83;8.63;;;10.50;1.00;;;;;;5035842;28;20202;-64
2023/10/29 03:44:09;;;;;;;8.33;7.43;;;10.50;1.00;;;;;;5034830;28;20250;-64
2023/10/29 03:46:35;;;;;;;9.77;8.77;;;10.50;1.00;;;;;;5034890;28;20191;-64
2023/10/29 03:49:00;;;;;;;10.40;8.00;;;10.50;1.00;;;;;;5034886;28;20167;-64
2023/10/29 03:51:28;;;;;;;8.83;7.90;;;10.50;1.00;;;;;;5035948;28;20175;-64
2023/10/29 03:53:55;;;;;;;8.63;7.77;;;10.50;1.00;;;;;;5035543;28;20254;-65
2023/10/29 03:56:20;;;;;;;7.63;6.97;;;10.40;1.00;;;;;;5034080;28;20829;-64
2023/10/29 03:58:46;;;;;;;9.10;7.47;;;10.40;1.00;;;;;;5034810;28;20407;-64
2023/10/29 04:01:13;;;;;;;9.33;7.57;;;10.40;1.00;;;;;;5035443;28;20171;-64
2023/10/29 04:03:39;;;;;;;10.40;7.60;;;10.50;1.00;;;;;;5035798;28;20160;-65
2023/10/29 04:06:11;;;;;;;8.73;7.93;;;10.40;1.00;;;;;;5034601;28;20504;-65
2023/10/29 04:08:38;;;;;;;8.13;7.30;;;10.40;1.00;;;;;;5034287;28;20385;-65
2023/10/29 04:11:04;;;;;;;13.30;7.30;;;10.40;1.00;;;;;;5033375;28;20800;-68
2023/10/29 04:13:33;;;;;;;7.20;6.50;;;10.40;1.00;;;;;;5034158;28;20409;-64
2023/10/29 04:15:59;;;;;;;9.87;8.57;;;10.40;1.00;;;;;;5031856;28;20769;-63
2023/10/29 04:18:27;;;;;;;9.10;7.40;;;10.30;1.00;;;;;;5033719;28;20418;-64
2023/10/29 04:20:54;;;;;;;8.30;6.60;;;10.30;1.00;;;;;;5035077;28;20167;-64
2023/10/29 04:23:19;;;;;;;7.80;7.03;;;10.30;1.00;;;;;;5035158;28;20424;-65
2023/10/29 04:25:45;;;;;;;8.37;7.40;;;10.30;1.00;;;;;;5034270;28;20443;-64
2023/10/29 04:28:11;;;;;;;7.60;6.97;;;10.40;1.00;;;;;;5040631;28;20631;-64
2023/10/29 04:30:37;;;;;;;9.20;7.83;;;10.40;1.00;;;;;;5054794;28;20163;-64
2023/10/29 04:33:03;;;;;;;9.23;6.33;;;10.40;1.00;;;;;;5053873;28;20182;-64
2023/10/29 04:35:29;;;;;;;9.63;6.70;;;10.40;1.00;;;;;;5052865;28;20182;-66
2023/10/29 04:37:56;;;;;;;8.17;6.37;;;10.30;1.00;;;;;;5052776;28;20400;-64
2023/10/29 04:40:21;;;;;;;8.80;6.43;;;10.40;1.00;;;;;;5053835;28;20387;-65
2023/10/29 04:42:47;;;;;;;7.17;6.47;;;10.30;1.00;;;;;;5054680;28;20435;-64
2023/10/29 04:45:13;;;;;;;6.80;6.20;;;10.30;1.00;;;;;;5039266;28;20254;-63
2023/10/29 04:47:39;;;;;;;8.80;6.80;;;10.30;1.00;;;;;;5034147;28;20718;-65
2023/10/29 04:50:06;;;;;;;7.60;6.90;;;10.30;1.00;;;;;;5034706;28;20381;-65
2023/10/29 04:52:32;;;;;;;7.97;6.40;;;10.30;1.00;;;;;;5034460;28;20163;-64
2023/10/29 04:54:58;;;;;;;6.50;5.80;;;10.30;1.00;;;;;;5033248;28;20402;-63
2023/10/29 04:57:23;;;;;;;5.67;5.13;;;10.30;1.00;;;;;;5034092;28;20396;-64
2023/10/29 04:59:49;;;;;;;8.47;6.27;;;10.40;1.00;;;;;;5033873;28;20172;-65
2023/10/29 05:02:18;;;;;;;6.13;5.60;;;10.40;1.00;;;;;;5032765;28;20195;-65
2023/10/29 05:04:44;;;;;;;7.70;5.53;;;10.40;1.00;;;;;;5032985;28;20219;-65
2023/10/29 05:07:10;;;;;;;4.53;4.23;;;10.30;1.00;;;;;;5033937;28;20474;-65
2023/10/29 05:09:35;;;;;;;4.70;4.27;;;10.30;1.00;;;;;;5032978;28;20435;-65
2023/10/29 05:12:02;;;;;;;4.40;4.00;;;10.30;1.00;;;;;;5033546;28;20179;-69
2023/10/29 05:14:27;;;;;;;4.73;4.00;;;10.30;1.00;;;;;;5034258;28;20190;-64
2023/10/29 05:16:53;;;;;;;4.90;4.53;;;10.30;1.00;;;;;;5033712;28;20454;-64
2023/10/29 05:19:20;;;;;;;4.07;3.77;;;10.30;1.00;;;;;;5034037;28;20172;-66
2023/10/29 05:21:45;;;;;;;4.13;3.73;;;10.40;1.00;;;;;;5032589;28;20199;-64
2023/10/29 05:24:11;;;;;;;5.07;4.40;;;10.30;1.00;;;;;;5033171;28;20418;-64
2023/10/29 05:26:37;;;;;;;3.90;3.60;;;10.30;1.00;;;;;;5033291;28;20251;-64
2023/10/29 05:29:06;;;;;;;3.30;3.00;;;10.40;1.00;;;;;;5033151;28;20254;-65
2023/10/29 05:31:32;;;;;;;3.33;3.03;;;10.40;1.00;;;;;;5033720;28;20171;-66
2023/10/29 05:33:58;;;;;;;3.10;2.90;;;10.40;1.00;;;;;;5032464;28;20908;-65
2023/10/29 05:36:24;;;;;;;3.30;3.10;;;10.40;1.00;;;;;;5032912;28;20405;-64
2023/10/29 05:38:49;;;;;;;3.10;2.90;;;10.40;1.00;;;;;;5032643;28;20480;-64
2023/10/29 05:41:15;;;;;;;3.00;2.80;;;10.40;1.00;;;;;;5033574;28;20163;-65
2023/10/29 05:43:41;;;;;;;5.50;2.73;;;10.40;1.00;;;;;;5032828;28;20199;-65
2023/10/29 05:46:14;;;;;;;3.37;3.07;;;10.40;1.00;;;;;;5032742;28;20682;-65
2023/10/29 05:48:40;;;;;;;4.77;2.43;;;10.40;1.00;;;;;;5033102;28;20525;-65
2023/10/29 05:51:10;;;;;;;3.13;2.53;;;10.50;1.00;;;;;;5033066;28;20804;-65
2023/10/29 05:53:38;;;;;;;2.83;2.60;;;10.50;1.00;;;;;;5033498;28;20401;-64
2023/10/29 05:56:04;;;;;;;2.40;2.30;;;10.50;1.00;;;;;;5032960;28;20441;-64
2023/10/29 05:58:30;;;;;;;2.50;2.30;;;10.50;1.00;;;;;;5033591;28;20381;-65
2023/10/29 06:00:55;;;;;;;2.77;2.57;;;10.50;1.00;;;;;;5033140;28;20392;-64
2023/10/29 06:03:21;;;;;;;2.60;2.50;;;10.60;1.00;;;;;;5031431;28;20286;-65
2023/10/29 06:05:47;;;;;;;2.73;2.53;;;10.50;1.00;;;;;;5032395;28;20183;-65
2023/10/29 06:08:12;;;;;;;2.87;2.67;;;10.50;1.00;;;;;;5033408;28;20167;-64
2023/10/29 06:10:38;;;;;;;3.30;2.60;;;10.60;1.00;;;;;;5032400;28;20639;-65
2023/10/29 06:13:04;;;;;;;2.00;1.90;;;10.60;1.00;;;;;;5033035;28;20175;-64
2023/10/29 06:15:30;;;;;;;2.43;2.33;;;10.60;1.00;;;;;;5032660;28;20168;-66
2023/10/29 06:17:55;;;;;;;2.20;2.10;;;10.60;1.00;;;;;;5031928;28;20913;-64
2023/10/29 06:20:22;;;;;;;3.30;2.23;;;10.60;1.00;;;;;;5031848;28;20172;-64
2023/10/29 06:22:48;;;;;;;3.40;2.03;;;10.60;1.00;;;;;;5031210;28;20672;-64
2023/10/29 06:25:17;;;;;;;2.43;2.23;;;10.60;1.00;;;;;;5041001;28;20372;-65
2023/10/29 06:27:43;;;;;;;4.30;2.40;;;10.70;1.00;;;;;;5052168;28;20421;-65
2023/10/29 06:30:13;;;;;;;2.90;2.20;;;10.70;1.00;;;;;;5052898;28;20375;-64
2023/10/29 06:32:39;;;;;;;3.03;2.80;;;10.70;1.00;;;;;;5053079;28;20171;-64
2023/10/29 06:35:06;;;;;;;2.50;2.30;;;10.70;1.00;;;;;;5051054;28;20740;-64
2023/10/29 06:37:32;;;;;;;2.30;2.20;;;10.70;1.00;;;;;;5053124;28;20400;-64
2023/10/29 06:39:57;;;;;;;2.70;2.50;;;10.80;1.00;;;;;;5051956;28;20401;-66
2023/10/29 06:42:23;;;;;;;2.67;2.50;;;10.70;1.00;;;;;;5052930;28;20426;-64
2023/10/29 06:44:49;;;;;;;2.50;2.30;;;10.80;1.00;;;;;;5052258;28;20845;-64
2023/10/29 06:47:14;;;;;;;2.40;2.20;;;10.80;1.00;;;;;;5050715;28;20198;-66
2023/10/29 06:49:41;;;;;;;2.47;2.27;;;10.80;1.00;;;;;;5038020;28;20229;-64
2023/10/29 06:52:08;;;;;;;2.47;2.37;;;10.80;1.00;;;;;;5032970;28;20164;-65
2023/10/29 06:54:34;;;;;;;2.60;2.50;;;10.90;1.00;;;;;;5030853;28;20400;-65
2023/10/29 06:57:00;;;;;;;2.57;2.30;;;11.00;1.00;;;;;;5030255;28;20778;-65
2023/10/29 06:59:28;;;;;;;2.93;2.60;;;11.00;1.00;;;;;;5046876;28;20912;-65
2023/10/29 07:01:55;;;;;;;2.63;2.53;;;11.00;1.00;;;;;;5052543;28;20453;-64
2023/10/29 07:04:21;;;;;;;2.60;2.50;;;11.00;1.00;;;;;;5052715;28;20406;-64
2023/10/29 07:06:49;;;;;;;5.13;3.70;;;11.10;1.00;;;;;;5049878;28;20452;-64
2023/10/29 07:09:15;;;;;;;3.20;3.00;;;11.10;1.00;;;;;;5052585;28;20167;-64
2023/10/29 07:11:42;;;;;;;2.30;2.10;;;11.10;1.00;;;;;;5052762;28;20425;-64
2023/10/29 07:14:09;;;;;;;3.00;2.80;;;11.20;1.00;;;;;;5052534;28;20456;-66
2023/10/29 07:16:34;;;;;;;3.23;3.03;;;11.20;1.00;;;;;;5050732;28;20407;-66
2023/10/29 07:19:00;;;;;;;3.87;2.90;;;11.30;1.00;;;;;;5052688;28;20865;-65
2023/10/29 07:21:26;;;;;;;3.10;2.90;;;11.30;1.00;;;;;;5052547;28;20190;-64
2023/10/29 07:23:52;;;;;;;4.60;3.50;;;11.30;1.00;;;;;;5051814;28;20179;-65
2023/10/29 07:26:17;;;;;;;3.33;3.03;;;11.30;1.00;;;;;;5054874;28;20186;-66
2023/10/29 07:28:43;;;;;;;4.40;3.00;;;11.30;1.00;;;;;;5056022;28;20540;-65
2023/10/29 07:31:09;;;;;;;4.30;2.73;;;11.30;1.00;;;;;;5056281;28;20301;-65
2023/10/29 07:33:34;;;;;;;3.07;2.93;;;11.40;1.00;;;;;;5055369;28;20189;-65
2023/10/29 07:36:04;;;;;;;3.10;2.57;;;11.40;1.00;;;;;;5053937;28;20171;-65
2023/10/29 07:38:30;;;;;;;5.60;3.00;;;11.40;1.00;;;;;;5055690;28;20175;-65
2023/10/29 07:40:55;;;;;;;5.97;2.90;;;11.40;1.00;;;;;;5055309;28;20416;-65
2023/10/29 07:43:21;;;;;;;3.00;2.70;;;11.40;1.00;;;;;;5055767;28;20501;-65
2023/10/29 07:45:47;;;;;;;3.63;3.33;;;11.40;1.00;;;;;;5054834;28;20681;-66
2023/10/29 07:48:17;;;;;;;4.90;2.90;;;11.50;1.00;;;;;;5055791;28;20436;-71
2023/10/29 07:50:49;;;;;;;2.83;2.63;;;11.50;1.00;;;;;;5055428;28;20426;-66
2023/10/29 07:53:15;;;;;;;4.73;3.10;;;11.60;1.00;;;;;;5055352;28;20471;-65
2023/10/29 07:55:41;;;;;;;3.03;2.80;;;11.60;1.00;;;;;;5053291;28;20509;-65
2023/10/29 07:58:06;;;;;;;4.13;2.40;;;11.60;1.00;;;;;;5055353;28;20252;-65
2023/10/29 08:00:34;;;;;;;3.00;2.80;;;11.60;1.00;;;;;;5054915;28;20258;-65
2023/10/29 08:03:00;;;;;;;3.23;3.03;;;11.60;1.00;;;;;;5055369;28;20198;-64
2023/10/29 08:05:26;;;;;;;2.60;2.50;;;11.70;1.00;;;;;;5054450;28;20922;-64
2023/10/29 08:07:52;;;;;;;5.00;2.40;;;11.70;1.00;;;;;;5055221;28;20187;-64
2023/10/29 08:10:17;;;;;;;2.97;2.67;;;11.70;1.00;;;;;;5054730;28;20408;-65
2023/10/29 08:12:43;;;;;;;2.23;2.07;;;11.80;1.00;;;;;;5055232;28;20175;-65
2023/10/29 08:15:09;;;;;;;6.70;3.10;;;11.80;1.00;;;;;;5053271;28;20167;-70
2023/10/29 08:17:35;;;;;;;4.33;2.60;;;11.80;1.00;;;;;;5048879;28;20249;-66
2023/10/29 08:20:00;;;;;;;6.47;5.87;;;11.90;1.00;;;;;;5054764;28;20402;-64
2023/10/29 08:22:26;;;;;;;3.10;2.87;;;12.00;1.00;;;;;;5055092;28;20555;-65
2023/10/29 08:24:53;;;;;;;3.40;2.33;;;12.00;1.00;;;;;;5053812;28;20527;-65
2023/10/29 08:27:18;;;;;;;4.50;2.93;;;12.00;1.00;;;;;;5054290;28;20418;-64
2023/10/29 08:29:45;;;;;;;2.67;2.47;;;12.10;1.00;;;;;;5054019;28;20920;-64
2023/10/29 08:32:10;;;;;;;2.90;2.30;;;12.10;1.00;;;;;;5055043;28;20171;-65
2023/10/29 08:34:36;;;;;;;4.77;2.63;;;12.20;1.00;;;;;;5053696;28;20409;-66
2023/10/29 08:37:02;;;;;;;3.47;2.60;;;12.20;1.00;;;;;;5053908;28;20198;-65
2023/10/29 08:39:29;;;;;;;3.03;2.67;;;12.20;1.00;;;;;;5054965;28;20175;-64
2023/10/29 08:41:56;;;;;;;2.50;2.30;;;12.20;1.00;;;;;;5054679;28;20460;-64
2023/10/29 08:44:21;;;;;;;2.73;2.50;;;12.30;1.00;;;;;;5054581;28;20421;-64
2023/10/29 08:46:47;;;;;;;3.70;2.43;;;12.20;1.00;;;;;;5053365;28;20445;-64
2023/10/29 08:49:13;;;;;;;3.50;3.30;;;12.20;1.00;;;;;;5054600;28;20644;-65
2023/10/29 08:51:38;;;;;;;3.53;3.20;;;12.20;1.00;;;;;;5054520;28;20167;-64
2023/10/29 08:54:04;;;;;;;3.83;2.33;;;12.30;1.00;;;;;;5054407;28;20174;-64
2023/10/29 08:56:34;;;;;;;4.40;2.93;;;12.40;1.00;;;;;;5041336;28;20290;-64
2023/10/29 08:59:01;;;;;;;2.40;2.20;;;12.40;1.00;;;;;;5034436;28;20418;-65
2023/10/29 09:01:27;;;;;;;3.53;3.23;;;12.40;1.00;;;;;;5034249;28;20410;-64
2023/10/29 09:03:53;;;;;;;6.23;2.93;;;12.50;1.00;;;;;;5034390;28;20539;-64
2023/10/29 09:06:20;;;;;;;8.03;2.77;;;12.50;1.00;;;;;;5032897;28;20203;-64
2023/10/29 09:08:45;;;;;;;4.90;3.30;;;12.60;1.00;;;;;;5034273;28;20895;-64
2023/10/29 09:11:14;;;;;;;6.40;3.57;;;12.60;1.00;;;;;;5034069;28;20406;-64
2023/10/29 09:13:40;;;;;;;4.60;3.00;;;12.60;1.00;;;;;;5033831;28;20175;-69
2023/10/29 09:16:06;;;;;;;4.97;3.17;;;12.60;1.00;;;;;;5033173;28;20418;-64
2023/10/29 09:18:32;;;;;;;6.33;3.57;;;12.60;1.00;;;;;;5034258;28;20747;-64
2023/10/29 09:20:58;;;;;;;8.43;3.40;;;12.70;1.00;;;;;;5032971;28;20497;-64
2023/10/29 09:23:23;;;;;;;5.20;2.40;;;12.90;1.00;;;;;;5033481;28;20282;-64
2023/10/29 09:25:50;;;;;;;3.47;2.13;;;13.00;1.00;;;;;;5031589;28;20210;-64
2023/10/29 09:28:16;;;;;;;3.10;2.30;;;13.10;1.00;;;;;;5032804;28;20172;-64
2023/10/29 09:30:42;;;;;;;3.07;2.80;;;13.20;1.00;;;;;;5033953;28;20386;-65
2023/10/29 09:33:11;;;;;;;2.10;2.00;;;13.30;1.00;;;;;;5033118;28;20425;-65
2023/10/29 09:35:37;;;;;;;3.00;2.53;;;13.40;1.00;;;;;;5033066;28;20419;-64
2023/10/29 09:38:03;;;;;;;3.23;2.17;;;13.50;1.00;;;;;;5033737;28;20437;-64
2023/10/29 09:40:29;;;;;;;3.17;2.93;;;13.60;1.00;;;;;;5032594;28;20422;-65
2023/10/29 09:42:55;;;;;;;3.40;2.10;;;13.70;1.00;;;;;;5033008;28;20667;-64
2023/10/29 09:45:26;;;;;;;3.40;2.27;;;13.80;1.00;;;;;;5033013;28;20414;-64
2023/10/29 09:47:58;;;;;;;1.83;1.73;;;13.70;99.90;;;;;;5032568;28;20418;-65
2023/10/29 09:50:24;;;;;;;2.00;1.90;;;13.70;99.90;;;;;;5031798;28;20414;-64
2023/10/29 09:52:53;;;;;;;3.07;2.77;;;13.80;99.90;;;;;;5032324;28;20935;-64
2023/10/29 09:55:20;;;;;;;2.00;1.90;;;13.80;99.90;;;;;;5032847;28;20406;-65
2023/10/29 09:57:47;;;;;;;11.30;2.60;;;13.80;99.90;;;;;;5033066;28;20461;-66
2023/10/29 10:00:16;;;;;;;3.33;1.90;;;13.80;99.90;;;;;;5033021;28;20388;-64
2023/10/29 10:03:08;;;;;;;2.90;2.10;;;13.80;99.90;;;;;;5032001;28;20458;-64
2023/10/29 10:05:35;;;;;;;2.67;1.80;;;13.90;99.90;;;;;;5033081;28;20996;-65
2023/10/29 10:08:01;;;;;;;1.83;1.73;;;14.00;99.90;;;;;;5033214;28;20922;-65
2023/10/29 10:10:41;;;;;;;2.27;1.80;;;14.10;99.90;;;;;;5032963;28;20481;-63
2023/10/29 10:13:07;;;;;;;3.03;2.83;;;14.30;99.90;;;;;;5033142;28;20258;-64
2023/10/29 10:15:33;;;;;;;1.93;1.47;;;14.40;99.90;;;;;;5032595;28;20410;-65
2023/10/29 10:18:01;;;;;;;1.93;1.80;;;14.50;99.90;;;;;;5038177;28;20468;-64
2023/10/29 10:20:28;;;;;;;2.20;1.80;;;14.70;99.90;;;;;;5053500;28;20758;-64
2023/10/29 10:22:58;;;;;;;4.10;1.63;;;14.90;99.90;;;;;;5051703;28;20465;-64
2023/10/29 10:25:25;;;;;;;2.73;1.90;;;15.00;99.90;;;;;;5052392;28;20404;-64
2023/10/29 10:27:55;;;;;;;2.07;1.50;;;15.00;99.90;;;;;;5052069;28;20416;-64
2023/10/29 10:30:29;;;;;;;1.63;1.40;;;15.00;99.90;;;;;;5052729;28;20397;-64
2023/10/29 10:33:20;;;;;;;2.77;1.63;;;14.90;98.10;;;;;;5053315;28;20393;-64
2023/10/29 10:35:50;;;;;;;1.73;1.30;;;14.90;75.60;;;;;;5051676;28;20487;-65
2023/10/29 10:38:19;;;;;;;1.77;1.67;;;14.90;69.10;;;;;;5052649;28;20405;-64
2023/10/29 10:40:46;;;;;;;2.07;1.20;;;15.00;62.30;;;;;;5052951;28;20570;-64
2023/10/29 10:43:18;;;;;;;1.63;1.53;;;14.90;32.00;;;;;;5053008;28;20540;-63
2023/10/29 10:45:49;;;;;;;1.90;1.43;;;14.90;1.00;;;;;;5051943;28;20406;-64
2023/10/29 10:48:16;;;;;;;3.67;1.70;;;14.90;1.00;;;;;;5052153;28;20413;-64
2023/10/29 10:50:42;;;;;;;1.90;1.50;;;14.90;1.00;;;;;;5052731;28;20858;-65
2023/10/29 10:53:09;;;;;;;4.10;2.07;;;14.80;1.00;;;;;;5046009;28;20450;-65
2023/10/29 10:55:36;;;;;;;3.60;1.23;;;14.80;1.00;;;;;;5031589;28;20421;-65
2023/10/29 10:58:03;;;;;;;2.03;1.47;;;14.80;1.00;;;;;;5034320;28;20791;-64
2023/10/29 11:00:34;;;;;;;1.70;1.30;;;14.90;1.00;;;;;;5036730;28;20448;-63
2023/10/29 11:03:01;;;;;;;1.40;1.30;;;14.90;1.00;;;;;;5036763;28;20460;-63
2023/10/29 11:05:32;;;;;;;4.53;1.23;;;14.90;1.00;;;;;;5035039;28;20418;-64
2023/10/29 11:07:58;;;;;;;1.60;1.50;;;14.80;1.00;;;;;;5035221;28;20919;-64
2023/10/29 11:10:28;;;;;;;1.37;1.27;;;14.90;1.00;;;;;;5036362;28;20407;-64
2023/10/29 11:12:54;;;;;;;1.47;1.17;;;14.90;1.00;;;;;;5035943;28;20794;-66
2023/10/29 11:15:21;;;;;;;1.80;1.60;;;14.90;1.00;;;;;;5035455;28;20411;-63
2023/10/29 11:18:05;;;;;;;1.30;1.20;;;14.90;99.90;;;;;;5036418;28;20922;-65
2023/10/29 11:20:45;;;;;;;2.57;1.60;;;14.90;99.90;;;;;;5036437;28;20401;-64
2023/10/29 11:23:16;;;;;;;1.13;1.03;;;15.00;99.90;;;;;;5035691;28;20449;-64
2023/10/29 11:25:42;;;;;;;4.30;1.40;;;15.10;99.90;;;;;;5035369;28;20410;-64
2023/10/29 11:28:33;;;;;;;1.30;1.03;;;15.20;99.90;;;;;;5036057;28;20377;-64
2023/10/29 11:31:15;;;;;;;9.27;1.63;;;15.20;99.90;;;;;;5036245;28;20402;-64
2023/10/29 11:34:07;;;;;;;1.77;1.33;;;15.30;99.90;;;;;;5034508;28;20410;-64
2023/10/29 11:36:41;;;;;;;7.80;1.40;;;15.30;99.90;;;;;;5035111;28;20443;-64
2023/10/29 11:39:17;;;;;;;1.40;1.30;;;15.20;99.90;;;;;;5035980;28;20493;-64
2023/10/29 11:41:47;;;;;;;1.90;1.47;;;15.00;99.90;;;;;;5035381;28;20449;-64
2023/10/29 11:44:25;;;;;;;2.37;1.50;;;15.00;99.90;;;;;;5035817;28;20442;-65
2023/10/29 11:47:03;;;;;;;3.60;1.10;;;15.10;99.90;;;;;;5035229;28;20782;-66
2023/10/29 11:49:50;;;;;;;2.40;1.30;;;15.20;99.90;;;;;;5035999;28;20501;-64
2023/10/29 11:52:16;;;;;;;2.70;1.53;;;15.30;99.90;;;;;;5034804;28;20495;-66
2023/10/29 11:54:42;;;;;;;1.50;1.30;;;15.20;99.90;;;;;;5034643;28;20473;-64
2023/10/29 11:57:09;;;;;;;2.70;1.23;;;15.10;99.90;;;;;;5035524;28;20452;-64
2023/10/29 11:59:53;;;;;;;3.53;1.30;;;15.10;99.90;;;;;;5034939;28;20172;-64
2023/10/29 12:02:19;;;;;;;1.60;1.30;;;15.20;99.90;;;;;;5035425;28;20432;-64
2023/10/29 12:04:45;;;;;;;1.77;1.33;;;15.40;99.90;;;;;;5034885;28;20426;-64
2023/10/29 12:07:24;;;;;;;2.47;1.23;;;15.50;99.90;;;;;;5035637;28;20438;-63
2023/10/29 12:10:02;;;;;;;2.70;1.17;;;15.50;99.90;;;;;;5034793;28;20159;-65
2023/10/29 12:12:28;;;;;;;3.53;1.23;;;15.60;99.90;;;;;;5035058;28;20402;-64
2023/10/29 12:14:53;;;;;;;2.37;1.33;;;15.60;99.90;;;;;;5046409;28;20791;-64
2023/10/29 12:17:19;;;;;;;2.10;1.40;;;15.50;99.90;;;;;;5054743;28;20191;-65
2023/10/29 12:19:45;;;;;;;2.00;1.10;;;15.50;94.00;;;;;;5054865;28;20179;-69
2023/10/29 12:22:27;;;;;;;2.37;1.57;;;15.50;94.00;;;;;;5055159;28;20472;-64
2023/10/29 12:25:01;;;;;;;8.60;1.40;;;15.50;94.00;;;;;;5054483;28;20273;-63
2023/10/29 12:27:27;;;;;;;3.50;2.00;;;15.40;94.00;;;;;;5054864;28;20413;-64
2023/10/29 12:29:53;;;;;;;1.97;1.33;;;15.30;94.00;;;;;;5054481;28;20394;-65
2023/10/29 12:32:22;;;;;;;1.53;1.43;;;15.30;94.00;;;;;;5054851;28;20408;-63
2023/10/29 12:34:56;;;;;;;2.53;1.13;;;15.20;94.00;;;;;;5054232;28;20249;-64
2023/10/29 12:37:30;;;;;;;2.03;1.17;;;15.20;93.90;;;;;;5054199;28;20440;-64
2023/10/29 12:40:00;;;;;;;7.00;1.40;;;15.20;94.00;;;;;;5054405;28;20459;-63
2023/10/29 12:42:49;;;;;;;2.40;1.30;;;15.20;93.90;;;;;;5054725;28;20526;-64
2023/10/29 12:45:34;;;;;;;3.77;1.57;;;15.30;93.90;;;;;;5053977;28;20401;-66
2023/10/29 12:48:16;;;;;;;1.50;1.20;;;15.40;94.00;;;;;;5053934;28;20427;-64
2023/10/29 12:50:50;;;;;;;1.53;1.23;;;15.30;90.40;;;;;;5054636;28;20472;-64
2023/10/29 12:53:27;;;;;;;2.47;1.20;;;15.40;89.90;;;;;;5053342;28;20409;-64